sensor_id;sensor_type;location;lat;lon;timestamp;pressure;altitude;pressure_sealevel;temperature;humidity
62864;BME280;48954;59.950;11.014;2023-04-19T00:01:03;102174.88;;;2.72;58.79
62864;BME280;48954;59.950;11.014;2023-04-19T00:03:32;102171.11;;;2.68;58.82
62864;BME280;48954;59.950;11.014;2023-04-19T00:05:58;102171.31;;;2.64;59.02
62864;BME280;48954;59.950;11.014;2023-04-19T00:08:29;102168.64;;;2.60;58.99
62864;BME280;48954;59.950;11.014;2023-04-19T00:10:55;102167.20;;;2.57;59.03
62864;BME280;48954;59.950;11.014;2023-04-19T00:13:21;102165.32;;;2.53;59.01
62864;BME280;48954;59.950;11.014;2023-04-19T00:15:47;102161.34;;;2.49;58.99
62864;BME280;48954;59.950;11.014;2023-04-19T00:18:13;102162.08;;;2.45;59.06
62864;BME280;48954;59.950;11.014;2023-04-19T00:20:38;102162.69;;;2.41;58.97
62864;BME280;48954;59.950;11.014;2023-04-19T00:23:04;102163.31;;;2.37;59.13
62864;BME280;48954;59.950;11.014;2023-04-19T00:25:30;102163.73;;;2.32;59.25
62864;BME280;48954;59.950;11.014;2023-04-19T00:27:56;102165.77;;;2.27;59.38
62864;BME280;48954;59.950;11.014;2023-04-19T00:30:22;102166.54;;;2.23;59.45
62864;BME280;48954;59.950;11.014;2023-04-19T00:32:50;102169.98;;;2.19;59.54
62864;BME280;48954;59.950;11.014;2023-04-19T00:35:16;102169.20;;;2.19;59.79
62864;BME280;48954;59.950;11.014;2023-04-19T00:37:42;102167.34;;;2.18;59.62
62864;BME280;48954;59.950;11.014;2023-04-19T00:40:08;102166.77;;;2.15;59.99
62864;BME280;48954;59.950;11.014;2023-04-19T00:42:34;102167.16;;;2.14;59.86
62864;BME280;48954;59.950;11.014;2023-04-19T00:45:00;102166.51;;;2.14;59.95
62864;BME280;48954;59.950;11.014;2023-04-19T00:47:26;102166.88;;;2.12;60.18
62864;BME280;48954;59.950;11.014;2023-04-19T00:49:52;102168.28;;;2.10;60.10
62864;BME280;48954;59.950;11.014;2023-04-19T00:52:18;102163.69;;;2.08;60.41
62864;BME280;48954;59.950;11.014;2023-04-19T00:54:47;102165.35;;;2.06;60.25
62864;BME280;48954;59.950;11.014;2023-04-19T00:57:17;102165.00;;;2.05;60.62
62864;BME280;48954;59.950;11.014;2023-04-19T00:59:43;102167.80;;;2.03;60.42
62864;BME280;48954;59.950;11.014;2023-04-19T01:02:09;102169.57;;;2.02;60.49
62864;BME280;48954;59.950;11.014;2023-04-19T01:04:35;102174.81;;;2.01;60.58
62864;BME280;48954;59.950;11.014;2023-04-19T01:07:01;102175.98;;;2.00;60.93
62864;BME280;48954;59.950;11.014;2023-04-19T01:09:27;102192.33;;;2.00;60.92
62864;BME280;48954;59.950;11.014;2023-04-19T01:11:53;102188.90;;;2.00;60.79
62864;BME280;48954;59.950;11.014;2023-04-19T01:14:18;102180.59;;;2.00;60.69
62864;BME280;48954;59.950;11.014;2023-04-19T01:16:45;102186.85;;;2.01;60.91
62864;BME280;48954;59.950;11.014;2023-04-19T01:19:11;102187.89;;;2.01;60.96
62864;BME280;48954;59.950;11.014;2023-04-19T01:21:37;102193.09;;;2.03;61.10
62864;BME280;48954;59.950;11.014;2023-04-19T01:24:03;102188.89;;;2.05;61.08
62864;BME280;48954;59.950;11.014;2023-04-19T01:26:28;102194.08;;;2.07;60.89
62864;BME280;48954;59.950;11.014;2023-04-19T01:28:54;102196.55;;;2.09;60.94
62864;BME280;48954;59.950;11.014;2023-04-19T01:31:20;102199.02;;;2.10;61.11
62864;BME280;48954;59.950;11.014;2023-04-19T01:33:46;102193.61;;;2.11;61.08
62864;BME280;48954;59.950;11.014;2023-04-19T01:36:12;102195.31;;;2.12;61.04
62864;BME280;48954;59.950;11.014;2023-04-19T01:38:37;102196.14;;;2.13;61.16
62864;BME280;48954;59.950;11.014;2023-04-19T01:41:03;102196.98;;;2.14;61.42
62864;BME280;48954;59.950;11.014;2023-04-19T01:43:29;102192.42;;;2.14;61.45
62864;BME280;48954;59.950;11.014;2023-04-19T01:45:55;102197.64;;;2.15;61.49
62864;BME280;48954;59.950;11.014;2023-04-19T01:48:21;102197.61;;;2.13;61.19
62864;BME280;48954;59.950;11.014;2023-04-19T01:50:47;102198.02;;;2.12;61.53
62864;BME280;48954;59.950;11.014;2023-04-19T01:53:12;102197.25;;;2.11;61.26
62864;BME280;48954;59.950;11.014;2023-04-19T01:55:39;102198.88;;;2.11;61.56
62864;BME280;48954;59.950;11.014;2023-04-19T01:58:05;102191.56;;;2.12;61.37
62864;BME280;48954;59.950;11.014;2023-04-19T02:00:31;102189.95;;;2.13;61.40
62864;BME280;48954;59.950;11.014;2023-04-19T02:02:57;102188.94;;;2.14;61.31
62864;BME280;48954;59.950;11.014;2023-04-19T02:05:23;102189.30;;;2.13;61.30
62864;BME280;48954;59.950;11.014;2023-04-19T02:07:48;102188.51;;;2.14;61.43
62864;BME280;48954;59.950;11.014;2023-04-19T02:10:14;102192.66;;;2.15;61.42
62864;BME280;48954;59.950;11.014;2023-04-19T02:12:40;102191.34;;;2.14;61.57
62864;BME280;48954;59.950;11.014;2023-04-19T02:15:06;102189.34;;;2.12;61.28
62864;BME280;48954;59.950;11.014;2023-04-19T02:17:33;102192.48;;;2.12;61.46
62864;BME280;48954;59.950;11.014;2023-04-19T02:19:59;102185.55;;;2.10;61.31
62864;BME280;48954;59.950;11.014;2023-04-19T02:22:24;102184.91;;;2.08;61.24
62864;BME280;48954;59.950;11.014;2023-04-19T02:24:50;102181.48;;;2.06;61.36
62864;BME280;48954;59.950;11.014;2023-04-19T02:27:16;102180.19;;;2.04;61.30
62864;BME280;48954;59.950;11.014;2023-04-19T02:29:42;102184.98;;;2.02;61.43
62864;BME280;48954;59.950;11.014;2023-04-19T02:32:08;102184.92;;;1.99;61.77
62864;BME280;48954;59.950;11.014;2023-04-19T02:34:36;102179.12;;;1.97;61.67
62864;BME280;48954;59.950;11.014;2023-04-19T02:37:02;102182.67;;;1.94;61.60
62864;BME280;48954;59.950;11.014;2023-04-19T02:39:28;102183.48;;;1.91;61.66
62864;BME280;48954;59.950;11.014;2023-04-19T02:41:54;102183.11;;;1.89;61.44
62864;BME280;48954;59.950;11.014;2023-04-19T02:44:21;102182.33;;;1.86;61.65
62864;BME280;48954;59.950;11.014;2023-04-19T02:46:50;102183.09;;;1.84;61.77
62864;BME280;48954;59.950;11.014;2023-04-19T02:49:18;102184.46;;;1.81;62.19
62864;BME280;48954;59.950;11.014;2023-04-19T02:51:44;102181.76;;;1.78;61.60
62864;BME280;48954;59.950;11.014;2023-04-19T02:54:10;102181.13;;;1.76;61.93
62864;BME280;48954;59.950;11.014;2023-04-19T02:56:37;102180.85;;;1.74;62.05
62864;BME280;48954;59.950;11.014;2023-04-19T02:59:04;102179.24;;;1.70;61.99
62864;BME280;48954;59.950;11.014;2023-04-19T03:01:30;102173.14;;;1.65;62.02
62864;BME280;48954;59.950;11.014;2023-04-19T03:03:56;102172.18;;;1.61;61.97
62864;BME280;48954;59.950;11.014;2023-04-19T03:06:22;102173.61;;;1.57;62.08
62864;BME280;48954;59.950;11.014;2023-04-19T03:08:48;102176.73;;;1.52;62.05
62864;BME280;48954;59.950;11.014;2023-04-19T03:11:15;102175.79;;;1.46;61.90
62864;BME280;48954;59.950;11.014;2023-04-19T03:13:41;102171.23;;;1.40;61.96
62864;BME280;48954;59.950;11.014;2023-04-19T03:16:07;102168.05;;;1.37;62.38
62864;BME280;48954;59.950;11.014;2023-04-19T03:18:33;102172.04;;;1.33;62.42
62864;BME280;48954;59.950;11.014;2023-04-19T03:20:59;102172.58;;;1.30;62.35
62864;BME280;48954;59.950;11.014;2023-04-19T03:23:25;102176.86;;;1.27;62.29
62864;BME280;48954;59.950;11.014;2023-04-19T03:25:51;102175.41;;;1.23;62.24
62864;BME280;48954;59.950;11.014;2023-04-19T03:28:19;102180.79;;;1.21;62.85
62864;BME280;48954;59.950;11.014;2023-04-19T03:30:45;102178.88;;;1.19;62.63
62864;BME280;48954;59.950;11.014;2023-04-19T03:33:11;102185.29;;;1.16;63.00
62864;BME280;48954;59.950;11.014;2023-04-19T03:35:37;102185.45;;;1.14;62.45
62864;BME280;48954;59.950;11.014;2023-04-19T03:38:03;102184.54;;;1.09;62.90
62864;BME280;48954;59.950;11.014;2023-04-19T03:40:31;102187.30;;;1.04;63.11
62864;BME280;48954;59.950;11.014;2023-04-19T03:43:00;102191.23;;;0.98;63.17
62864;BME280;48954;59.950;11.014;2023-04-19T03:45:26;102194.42;;;0.94;62.86
62864;BME280;48954;59.950;11.014;2023-04-19T03:47:52;102191.59;;;0.88;63.16
62864;BME280;48954;59.950;11.014;2023-04-19T03:50:17;102198.72;;;0.83;63.17
62864;BME280;48954;59.950;11.014;2023-04-19T03:52:43;102194.40;;;0.79;63.19
62864;BME280;48954;59.950;11.014;2023-04-19T03:55:09;102189.23;;;0.75;63.45
62864;BME280;48954;59.950;11.014;2023-04-19T03:57:36;102188.80;;;0.71;63.60
62864;BME280;48954;59.950;11.014;2023-04-19T04:00:02;102194.07;;;0.67;63.43
62864;BME280;48954;59.950;11.014;2023-04-19T04:02:30;102194.17;;;0.64;63.42
62864;BME280;48954;59.950;11.014;2023-04-19T04:04:56;102193.98;;;0.61;63.67
62864;BME280;48954;59.950;11.014;2023-04-19T04:07:22;102190.16;;;0.56;63.67
62864;BME280;48954;59.950;11.014;2023-04-19T04:09:48;102190.34;;;0.52;63.79
62864;BME280;48954;59.950;11.014;2023-04-19T04:12:14;102190.90;;;0.48;63.75
62864;BME280;48954;59.950;11.014;2023-04-19T04:14:40;102187.79;;;0.47;64.25
62864;BME280;48954;59.950;11.014;2023-04-19T04:17:06;102188.14;;;0.46;63.99
62864;BME280;48954;59.950;11.014;2023-04-19T04:19:32;102190.23;;;0.45;64.45
62864;BME280;48954;59.950;11.014;2023-04-19T04:21:57;102186.35;;;0.46;64.43
62864;BME280;48954;59.950;11.014;2023-04-19T04:24:23;102189.58;;;0.47;64.33
62864;BME280;48954;59.950;11.014;2023-04-19T04:26:49;102188.45;;;0.48;64.26
62864;BME280;48954;59.950;11.014;2023-04-19T04:29:16;102194.06;;;0.51;64.29
62864;BME280;48954;59.950;11.014;2023-04-19T04:31:41;102195.06;;;0.53;64.40
62864;BME280;48954;59.950;11.014;2023-04-19T04:34:07;102189.21;;;0.53;64.50
62864;BME280;48954;59.950;11.014;2023-04-19T04:36:34;102196.38;;;0.56;64.73
62864;BME280;48954;59.950;11.014;2023-04-19T04:39:00;102190.05;;;0.58;64.34
62864;BME280;48954;59.950;11.014;2023-04-19T04:41:26;102192.38;;;0.62;64.89
62864;BME280;48954;59.950;11.014;2023-04-19T04:43:52;102191.52;;;0.65;64.66
62864;BME280;48954;59.950;11.014;2023-04-19T04:46:17;102188.44;;;0.69;65.08
62864;BME280;48954;59.950;11.014;2023-04-19T04:48:43;102188.81;;;0.76;65.39
62864;BME280;48954;59.950;11.014;2023-04-19T04:51:09;102190.28;;;0.81;65.20
62864;BME280;48954;59.950;11.014;2023-04-19T04:53:35;102192.38;;;0.86;65.10
62864;BME280;48954;59.950;11.014;2023-04-19T04:56:01;102191.66;;;0.91;65.07
62864;BME280;48954;59.950;11.014;2023-04-19T04:58:28;102191.44;;;0.96;65.09
62864;BME280;48954;59.950;11.014;2023-04-19T05:00:54;102190.69;;;1.01;65.49
62864;BME280;48954;59.950;11.014;2023-04-19T05:03:20;102185.59;;;1.06;65.10
62864;BME280;48954;59.950;11.014;2023-04-19T05:05:46;102189.81;;;1.12;65.45
62864;BME280;48954;59.950;11.014;2023-04-19T05:08:12;102186.85;;;1.18;64.88
62864;BME280;48954;59.950;11.014;2023-04-19T05:13:36;102186.08;;;1.32;65.28
62864;BME280;48954;59.950;11.014;2023-04-19T05:16:01;102189.74;;;1.39;65.41
62864;BME280;48954;59.950;11.014;2023-04-19T05:18:27;102189.16;;;1.45;65.33
62864;BME280;48954;59.950;11.014;2023-04-19T05:20:56;102189.16;;;1.52;65.15
62864;BME280;48954;59.950;11.014;2023-04-19T05:23:22;102185.94;;;1.60;65.34
62864;BME280;48954;59.950;11.014;2023-04-19T05:25:48;102191.20;;;1.68;65.39
62864;BME280;48954;59.950;11.014;2023-04-19T05:28:15;102194.05;;;1.77;65.38
62864;BME280;48954;59.950;11.014;2023-04-19T05:30:41;102191.16;;;1.85;65.32
62864;BME280;48954;59.950;11.014;2023-04-19T05:33:07;102191.38;;;1.93;65.49
62864;BME280;48954;59.950;11.014;2023-04-19T05:35:32;102188.80;;;2.01;65.26
62864;BME280;48954;59.950;11.014;2023-04-19T05:37:58;102185.73;;;2.07;65.35
62864;BME280;48954;59.950;11.014;2023-04-19T05:40:24;102183.62;;;2.14;65.38
62864;BME280;48954;59.950;11.014;2023-04-19T05:42:54;102183.71;;;2.23;65.25
62864;BME280;48954;59.950;11.014;2023-04-19T05:45:20;102179.92;;;2.33;65.23
62864;BME280;48954;59.950;11.014;2023-04-19T05:47:46;102184.73;;;2.43;64.94
62864;BME280;48954;59.950;11.014;2023-04-19T05:50:12;102180.29;;;2.54;65.15
62864;BME280;48954;59.950;11.014;2023-04-19T05:52:38;102179.98;;;2.66;65.12
62864;BME280;48954;59.950;11.014;2023-04-19T05:55:04;102183.61;;;2.78;64.82
62864;BME280;48954;59.950;11.014;2023-04-19T05:57:30;102182.91;;;2.90;64.79
62864;BME280;48954;59.950;11.014;2023-04-19T05:59:56;102182.36;;;3.03;64.69
62864;BME280;48954;59.950;11.014;2023-04-19T06:02:24;102183.58;;;3.17;64.55
62864;BME280;48954;59.950;11.014;2023-04-19T06:04:49;102183.02;;;3.31;64.44
62864;BME280;48954;59.950;11.014;2023-04-19T06:07:15;102184.19;;;3.46;64.28
62864;BME280;48954;59.950;11.014;2023-04-19T06:09:41;102182.73;;;3.61;63.91
62864;BME280;48954;59.950;11.014;2023-04-19T06:12:08;102181.77;;;3.77;63.84
62864;BME280;48954;59.950;11.014;2023-04-19T06:14:34;102183.13;;;3.95;63.70
62864;BME280;48954;59.950;11.014;2023-04-19T06:16:59;102182.44;;;4.13;63.35
62864;BME280;48954;59.950;11.014;2023-04-19T06:19:25;102179.52;;;4.31;63.22
62864;BME280;48954;59.950;11.014;2023-04-19T06:21:51;102184.86;;;4.51;63.09
62864;BME280;48954;59.950;11.014;2023-04-19T06:24:17;102179.85;;;4.73;62.76
62864;BME280;48954;59.950;11.014;2023-04-19T06:26:43;102182.96;;;4.96;62.40
62864;BME280;48954;59.950;11.014;2023-04-19T06:29:10;102180.16;;;5.19;62.17
62864;BME280;48954;59.950;11.014;2023-04-19T06:31:36;102178.05;;;5.44;61.72
62864;BME280;48954;59.950;11.014;2023-04-19T06:34:02;102180.00;;;5.68;61.61
62864;BME280;48954;59.950;11.014;2023-04-19T06:36:28;102173.93;;;5.92;61.20
62864;BME280;48954;59.950;11.014;2023-04-19T06:38:54;102172.79;;;6.15;60.62
62864;BME280;48954;59.950;11.014;2023-04-19T06:41:19;102174.23;;;6.35;60.23
62864;BME280;48954;59.950;11.014;2023-04-19T06:43:45;102174.72;;;6.50;59.80
62864;BME280;48954;59.950;11.014;2023-04-19T06:46:11;102171.71;;;6.68;59.48
62864;BME280;48954;59.950;11.014;2023-04-19T06:48:37;102168.58;;;6.87;59.44
62864;BME280;48954;59.950;11.014;2023-04-19T06:51:03;102173.23;;;7.10;59.45
62864;BME280;48954;59.950;11.014;2023-04-19T06:53:29;102172.81;;;7.27;58.55
62864;BME280;48954;59.950;11.014;2023-04-19T06:56:00;102171.98;;;7.42;57.96
62864;BME280;48954;59.950;11.014;2023-04-19T06:58:27;102161.59;;;7.54;57.76
62864;BME280;48954;59.950;11.014;2023-04-19T07:00:53;102160.75;;;7.70;57.47
62864;BME280;48954;59.950;11.014;2023-04-19T07:03:20;102156.17;;;7.86;56.83
62864;BME280;48954;59.950;11.014;2023-04-19T07:05:47;102158.48;;;7.95;56.20
62864;BME280;48954;59.950;11.014;2023-04-19T07:08:13;102149.63;;;7.99;55.89
62864;BME280;48954;59.950;11.014;2023-04-19T07:10:38;102149.77;;;8.03;55.83
62864;BME280;48954;59.950;11.014;2023-04-19T07:13:04;102147.27;;;8.15;55.59
62864;BME280;48954;59.950;11.014;2023-04-19T07:15:30;102150.70;;;8.28;55.51
62864;BME280;48954;59.950;11.014;2023-04-19T07:17:56;102146.80;;;8.45;55.45
62864;BME280;48954;59.950;11.014;2023-04-19T07:20:22;102142.73;;;8.65;55.21
62864;BME280;48954;59.950;11.014;2023-04-19T07:22:48;102138.27;;;8.82;54.58
62864;BME280;48954;59.950;11.014;2023-04-19T07:25:14;102137.71;;;8.99;54.26
62864;BME280;48954;59.950;11.014;2023-04-19T07:27:39;102136.62;;;9.15;53.87
62864;BME280;48954;59.950;11.014;2023-04-19T07:30:06;102135.64;;;9.28;53.34
62864;BME280;48954;59.950;11.014;2023-04-19T07:32:32;102137.65;;;9.52;53.24
62864;BME280;48954;59.950;11.014;2023-04-19T07:34:58;102130.52;;;9.72;52.85
62864;BME280;48954;59.950;11.014;2023-04-19T07:37:24;102126.27;;;9.95;52.59
62864;BME280;48954;59.950;11.014;2023-04-19T07:39:50;102122.41;;;10.23;52.08
62864;BME280;48954;59.950;11.014;2023-04-19T07:42:16;102118.86;;;10.45;51.95
62864;BME280;48954;59.950;11.014;2023-04-19T07:44:42;102118.59;;;10.67;51.37
62864;BME280;48954;59.950;11.014;2023-04-19T07:47:11;102120.27;;;10.86;50.98
62864;BME280;48954;59.950;11.014;2023-04-19T07:49:37;102119.13;;;11.06;50.92
62864;BME280;48954;59.950;11.014;2023-04-19T07:52:06;102118.10;;;11.27;50.43
62864;BME280;48954;59.950;11.014;2023-04-19T07:54:32;102114.55;;;11.41;50.04
62864;BME280;48954;59.950;11.014;2023-04-19T07:56:58;102109.13;;;11.57;49.67
62864;BME280;48954;59.950;11.014;2023-04-19T07:59:24;102105.80;;;11.68;49.50
62864;BME280;48954;59.950;11.014;2023-04-19T08:01:50;102102.11;;;11.73;49.10
62864;BME280;48954;59.950;11.014;2023-04-19T08:04:16;102106.83;;;11.81;49.07
62864;BME280;48954;59.950;11.014;2023-04-19T08:06:42;102104.80;;;11.94;48.79
62864;BME280;48954;59.950;11.014;2023-04-19T08:09:08;102099.79;;;12.15;48.30
62864;BME280;48954;59.950;11.014;2023-04-19T08:11:35;102095.28;;;12.36;47.90
62864;BME280;48954;59.950;11.014;2023-04-19T08:14:01;102092.09;;;12.59;47.61
62864;BME280;48954;59.950;11.014;2023-04-19T08:16:27;102093.61;;;12.81;47.30
62864;BME280;48954;59.950;11.014;2023-04-19T08:18:54;102089.69;;;13.02;46.92
62864;BME280;48954;59.950;11.014;2023-04-19T08:21:20;102088.42;;;13.24;46.64
62864;BME280;48954;59.950;11.014;2023-04-19T08:23:46;102087.73;;;13.43;46.22
62864;BME280;48954;59.950;11.014;2023-04-19T08:26:13;102087.83;;;13.66;45.84
62864;BME280;48954;59.950;11.014;2023-04-19T08:28:41;102086.29;;;13.89;45.49
62864;BME280;48954;59.950;11.014;2023-04-19T08:31:14;102087.61;;;14.15;44.93
62864;BME280;48954;59.950;11.014;2023-04-19T08:33:40;102087.70;;;14.40;44.42
62864;BME280;48954;59.950;11.014;2023-04-19T08:36:07;102086.04;;;14.62;44.01
62864;BME280;48954;59.950;11.014;2023-04-19T08:38:34;102078.46;;;14.84;43.55
62864;BME280;48954;59.950;11.014;2023-04-19T08:41:00;102078.41;;;15.06;43.25
62864;BME280;48954;59.950;11.014;2023-04-19T08:43:29;102081.00;;;15.30;42.98
62864;BME280;48954;59.950;11.014;2023-04-19T08:45:55;102073.97;;;15.58;42.02
62864;BME280;48954;59.950;11.014;2023-04-19T08:48:22;102070.56;;;15.78;41.70
62864;BME280;48954;59.950;11.014;2023-04-19T08:50:49;102072.59;;;16.01;41.15
62864;BME280;48954;59.950;11.014;2023-04-19T08:53:17;102072.04;;;16.23;40.82
62864;BME280;48954;59.950;11.014;2023-04-19T08:55:44;102065.21;;;16.40;40.29
62864;BME280;48954;59.950;11.014;2023-04-19T08:58:10;102064.73;;;16.54;40.00
62864;BME280;48954;59.950;11.014;2023-04-19T09:00:38;102059.52;;;16.72;39.68
62864;BME280;48954;59.950;11.014;2023-04-19T09:03:06;102055.02;;;16.96;39.10
62864;BME280;48954;59.950;11.014;2023-04-19T09:05:32;102053.17;;;17.20;39.05
62864;BME280;48954;59.950;11.014;2023-04-19T09:08:24;102051.11;;;17.33;37.59
62864;BME280;48954;59.950;11.014;2023-04-19T09:11:00;102050.27;;;17.14;37.42
62864;BME280;48954;59.950;11.014;2023-04-19T09:13:27;102043.23;;;17.21;37.56
62864;BME280;48954;59.950;11.014;2023-04-19T09:15:53;102045.73;;;17.29;37.22
62864;BME280;48954;59.950;11.014;2023-04-19T09:18:19;102044.61;;;17.46;37.17
62864;BME280;48954;59.950;11.014;2023-04-19T09:20:46;102041.88;;;17.73;36.69
62864;BME280;48954;59.950;11.014;2023-04-19T09:23:14;102037.76;;;17.90;35.83
62864;BME280;48954;59.950;11.014;2023-04-19T09:25:51;102038.53;;;18.01;35.90
62864;BME280;48954;59.950;11.014;2023-04-19T09:28:18;102032.49;;;18.12;35.57
62864;BME280;48954;59.950;11.014;2023-04-19T09:30:44;102024.56;;;17.94;34.87
62864;BME280;48954;59.950;11.014;2023-04-19T09:33:10;102028.02;;;17.89;35.24
62864;BME280;48954;59.950;11.014;2023-04-19T09:35:42;102024.84;;;18.00;35.11
62864;BME280;48954;59.950;11.014;2023-04-19T09:38:09;102017.80;;;18.31;34.99
62864;BME280;48954;59.950;11.014;2023-04-19T09:40:35;102013.72;;;18.56;34.52
62864;BME280;48954;59.950;11.014;2023-04-19T09:43:02;102016.98;;;18.97;33.81
62864;BME280;48954;59.950;11.014;2023-04-19T09:45:40;102013.98;;;19.26;33.52
62864;BME280;48954;59.950;11.014;2023-04-19T09:48:07;102012.17;;;19.62;33.17
62864;BME280;48954;59.950;11.014;2023-04-19T09:50:34;102005.55;;;19.85;32.69
62864;BME280;48954;59.950;11.014;2023-04-19T09:53:01;102004.60;;;19.75;32.52
62864;BME280;48954;59.950;11.014;2023-04-19T09:55:27;102003.63;;;19.47;32.12
62864;BME280;48954;59.950;11.014;2023-04-19T09:57:55;102001.44;;;19.18;31.99
62864;BME280;48954;59.950;11.014;2023-04-19T10:00:23;101999.77;;;18.94;31.86
62864;BME280;48954;59.950;11.014;2023-04-19T10:02:51;101999.98;;;19.04;31.53
62864;BME280;48954;59.950;11.014;2023-04-19T10:05:17;102000.36;;;19.37;31.35
62864;BME280;48954;59.950;11.014;2023-04-19T10:07:44;101991.44;;;19.73;30.78
62864;BME280;48954;59.950;11.014;2023-04-19T10:10:09;101987.01;;;20.04;30.66
62864;BME280;48954;59.950;11.014;2023-04-19T10:12:36;101984.52;;;20.36;30.29
62864;BME280;48954;59.950;11.014;2023-04-19T10:15:02;101980.65;;;20.67;30.32
62864;BME280;48954;59.950;11.014;2023-04-19T10:17:30;101975.10;;;20.90;29.80
62864;BME280;48954;59.950;11.014;2023-04-19T10:20:04;101966.08;;;20.85;29.31
62864;BME280;48954;59.950;11.014;2023-04-19T10:22:33;101972.92;;;20.78;29.04
62864;BME280;48954;59.950;11.014;2023-04-19T10:25:10;101968.98;;;20.81;29.21
62864;BME280;48954;59.950;11.014;2023-04-19T10:27:42;101965.66;;;21.05;29.17
62864;BME280;48954;59.950;11.014;2023-04-19T10:30:16;101960.95;;;21.11;28.91
62864;BME280;48954;59.950;11.014;2023-04-19T10:32:44;101955.17;;;21.30;28.99
62864;BME280;48954;59.950;11.014;2023-04-19T10:35:34;101949.92;;;21.65;28.62
62864;BME280;48954;59.950;11.014;2023-04-19T10:38:10;101947.60;;;21.99;28.26
62864;BME280;48954;59.950;11.014;2023-04-19T10:40:59;101945.86;;;22.50;28.03
62864;BME280;48954;59.950;11.014;2023-04-19T10:43:30;101939.31;;;22.95;27.60
62864;BME280;48954;59.950;11.014;2023-04-19T10:46:05;101936.46;;;23.47;27.59
62864;BME280;48954;59.950;11.014;2023-04-19T10:48:33;101931.78;;;23.88;26.79
62864;BME280;48954;59.950;11.014;2023-04-19T10:51:16;101929.80;;;24.02;26.52
62864;BME280;48954;59.950;11.014;2023-04-19T10:56:08;101928.54;;;24.07;26.04
62864;BME280;48954;59.950;11.014;2023-04-19T11:04:19;101920.55;;;23.08;25.41
62864;BME280;48954;59.950;11.014;2023-04-19T11:09:25;101915.36;;;23.29;24.77
62864;BME280;48954;59.950;11.014;2023-04-19T11:11:53;101910.48;;;23.31;24.82
62864;BME280;48954;59.950;11.014;2023-04-19T11:14:20;101905.68;;;23.54;24.45
62864;BME280;48954;59.950;11.014;2023-04-19T11:16:46;101899.73;;;23.72;24.13
62864;BME280;48954;59.950;11.014;2023-04-19T11:19:17;101905.77;;;23.40;24.20
62864;BME280;48954;59.950;11.014;2023-04-19T11:21:47;101902.72;;;23.35;23.96
62864;BME280;48954;59.950;11.014;2023-04-19T11:24:15;101899.79;;;23.11;23.79
62864;BME280;48954;59.950;11.014;2023-04-19T11:26:47;101898.90;;;22.94;23.87
62864;BME280;48954;59.950;11.014;2023-04-19T11:29:13;101893.04;;;22.61;23.90
62864;BME280;48954;59.950;11.014;2023-04-19T11:31:45;101890.75;;;22.41;24.04
62864;BME280;48954;59.950;11.014;2023-04-19T11:34:12;101886.06;;;21.94;23.81
62864;BME280;48954;59.950;11.014;2023-04-19T11:36:49;101886.65;;;21.59;24.13
62864;BME280;48954;59.950;11.014;2023-04-19T11:39:16;101881.72;;;21.41;24.38
62864;BME280;48954;59.950;11.014;2023-04-19T11:41:42;101881.14;;;21.38;24.52
62864;BME280;48954;59.950;11.014;2023-04-19T11:44:23;101879.08;;;21.47;24.76
62864;BME280;48954;59.950;11.014;2023-04-19T11:47:01;101874.05;;;22.27;24.28
62864;BME280;48954;59.950;11.014;2023-04-19T11:49:33;101872.63;;;23.03;23.93
62864;BME280;48954;59.950;11.014;2023-04-19T11:52:05;101862.69;;;23.61;23.84
62864;BME280;48954;59.950;11.014;2023-04-19T11:54:36;101862.36;;;24.52;23.19
62864;BME280;48954;59.950;11.014;2023-04-19T11:57:30;101861.40;;;24.46;22.79
62864;BME280;48954;59.950;11.014;2023-04-19T12:00:07;101859.38;;;24.19;22.82
62864;BME280;48954;59.950;11.014;2023-04-19T12:02:45;101855.45;;;24.01;22.78
62864;BME280;48954;59.950;11.014;2023-04-19T12:05:26;101852.83;;;23.62;22.76
62864;BME280;48954;59.950;11.014;2023-04-19T12:08:05;101849.45;;;23.63;22.73
62864;BME280;48954;59.950;11.014;2023-04-19T12:10:34;101847.88;;;23.78;22.52
62864;BME280;48954;59.950;11.014;2023-04-19T12:13:15;101847.21;;;23.67;22.64
62864;BME280;48954;59.950;11.014;2023-04-19T12:15:44;101847.22;;;23.21;22.60
62864;BME280;48954;59.950;11.014;2023-04-19T12:18:15;101851.88;;;22.74;22.77
62864;BME280;48954;59.950;11.014;2023-04-19T12:20:47;101848.31;;;22.44;23.06
62864;BME280;48954;59.950;11.014;2023-04-19T12:23:19;101841.75;;;22.35;23.01
62864;BME280;48954;59.950;11.014;2023-04-19T12:26:03;101835.25;;;22.83;23.01
62864;BME280;48954;59.950;11.014;2023-04-19T12:28:31;101826.50;;;23.62;22.72
62864;BME280;48954;59.950;11.014;2023-04-19T12:31:11;101825.07;;;23.42;22.94
62864;BME280;48954;59.950;11.014;2023-04-19T12:33:43;101821.95;;;23.18;23.11
62864;BME280;48954;59.950;11.014;2023-04-19T12:36:25;101819.83;;;23.12;23.28
62864;BME280;48954;59.950;11.014;2023-04-19T12:38:51;101816.65;;;22.95;22.95
62864;BME280;48954;59.950;11.014;2023-04-19T12:41:19;101814.19;;;22.36;23.05
62864;BME280;48954;59.950;11.014;2023-04-19T12:43:48;101815.64;;;21.79;23.52
62864;BME280;48954;59.950;11.014;2023-04-19T12:46:15;101810.57;;;21.50;23.56
62864;BME280;48954;59.950;11.014;2023-04-19T12:48:41;101801.95;;;21.30;23.59
62864;BME280;48954;59.950;11.014;2023-04-19T12:51:09;101798.22;;;20.93;24.02
62864;BME280;48954;59.950;11.014;2023-04-19T12:53:35;101798.41;;;20.72;24.10
62864;BME280;48954;59.950;11.014;2023-04-19T12:56:02;101788.81;;;20.47;24.49
62864;BME280;48954;59.950;11.014;2023-04-19T12:58:31;101785.33;;;20.43;24.43
62864;BME280;48954;59.950;11.014;2023-04-19T13:01:00;101782.05;;;20.48;24.59